Time;durP1;ratioP1;P1;durP2;ratioP2;P2;SDS_P1;SDS_P2;PMS_P1;PMS_P2;Temp;Humidity;BMP_temperature;BMP_pressure;BME280_temperature;BME280_humidity;BME280_pressure;Samples;Min_cycle;Max_cycle;Signal;HPM_P1;HPM_P2
2022/01/24 00:01:49;;;;;;;5.50;4.22;;;;;;;4.89;78.57;102556.78;5019222;28;19992;-78
2022/01/24 00:04:52;;;;;;;10.45;4.78;;;;;;;4.88;78.68;102555.06;5029661;28;20071;-78
2022/01/24 00:07:56;;;;;;;4.05;2.35;;;;;;;4.98;78.20;102552.47;5018104;28;20099;-78
2022/01/24 00:11:06;;;;;;;;;;;;;;;4.62;78.69;102554.06;5029894;28;20124;-78
2022/01/24 00:14:46;;;;;;;6.72;3.53;;;;;;;4.60;79.23;102555.81;5030410;28;19970;-78
2022/01/24 00:28:11;;;;;;;2.65;1.10;;;;;;;5.09;77.72;102525.72;5033705;28;20567;-77
2022/01/24 00:31:15;;;;;;;3.17;1.30;;;;;;;5.04;77.33;102532.66;5032958;28;20183;-78
2022/01/24 00:34:18;;;;;;;;;;;;;;;4.79;77.41;102536.03;5032738;28;20451;-78
2022/01/24 00:37:21;;;;;;;3.22;1.55;;;;;;;4.80;77.95;102538.59;5032923;28;19980;-77
2022/01/24 00:40:26;;;;;;;;;;;;;;;4.83;77.68;102538.63;5033376;28;20163;-78
2022/01/24 00:43:56;;;;;;;3.80;1.02;;;;;;;4.86;77.76;102542.94;5032853;28;19967;-78
2022/01/24 00:47:03;;;;;;;5.13;1.20;;;;;;;4.68;78.40;102535.97;5031969;28;20122;-78
2022/01/24 00:56:15;;;;;;;4.20;2.08;;;;;;;4.83;78.80;102543.81;5033388;28;20072;-78
2022/01/24 00:59:18;;;;;;;;;;;;;;;4.51;78.83;102548.84;5033201;28;20416;-79
2022/01/24 01:02:22;;;;;;;2.45;0.98;;;;;;;4.55;76.21;102544.53;5021554;28;19920;-79
2022/01/24 01:18:50;;;;;;;3.40;0.98;;;;;;;5.07;76.62;102557.69;5013430;28;20052;-77
2022/01/24 01:21:55;;;;;;;1.88;0.75;;;;;;;4.99;77.02;102552.50;5013697;28;20044;-77
2022/01/24 01:25:00;;;;;;;2.60;0.70;;;;;;;5.07;75.88;102547.31;5012729;28;20138;-77
2022/01/24 01:28:04;;;;;;;1.63;0.65;;;;;;;5.09;75.78;102556.84;5013615;28;20108;-77
2022/01/24 01:31:14;;;;;;;3.28;0.80;;;;;;;5.09;76.30;102556.84;5001544;28;20045;-77
2022/01/24 01:34:44;;;;;;;3.50;0.70;;;;;;;4.82;75.34;102552.44;5012608;28;20176;-77
2022/01/24 01:39:12;;;;;;;1.83;0.57;;;;;;;4.72;74.29;102555.84;5012247;28;20060;-77
2022/01/24 01:54:54;;;;;;;3.63;0.80;;;;;;;4.92;72.21;102555.06;5033036;28;20115;-78
2022/01/24 01:57:57;;;;;;;2.53;0.73;;;;;;;5.00;72.63;102550.78;5032019;28;20064;-78
2022/01/24 02:01:03;;;;;;;1.67;0.70;;;;;;;5.08;72.92;102549.94;5021022;28;20398;-77
2022/01/24 02:04:07;;;;;;;3.13;0.75;;;;;;;5.13;72.02;102555.13;5009534;28;20052;-77
2022/01/24 02:07:12;;;;;;;2.20;0.98;;;;;;;5.13;72.69;102552.53;5032062;28;20044;-77
2022/01/24 02:10:18;;;;;;;2.08;0.73;;;;;;;5.18;72.94;102550.84;5031840;28;20052;-77
2022/01/24 02:13:23;;;;;;;2.47;0.80;;;;;;;5.13;72.41;102552.53;5032397;28;20053;-77
2022/01/24 02:16:44;;;;;;;2.75;0.80;;;;;;;5.17;72.32;102543.94;5031970;28;20100;-77
2022/01/24 02:20:04;;;;;;;2.55;0.82;;;;;;;5.18;73.78;102543.06;5020241;28;20195;-77
2022/01/24 02:23:21;;;;;;;2.85;1.00;;;;;;;5.20;73.36;102541.34;5034960;28;20118;-77
2022/01/24 02:26:25;;;;;;;2.17;0.75;;;;;;;5.11;73.63;102528.34;5036284;28;20498;-77
2022/01/24 02:29:46;;;;;;;2.15;0.70;;;;;;;5.17;73.36;102524.88;5036404;28;20075;-77
2022/01/24 02:32:50;;;;;;;1.45;0.60;;;;;;;4.97;74.34;102524.84;5035567;28;20147;-77
2022/01/24 02:35:53;;;;;;;1.88;0.60;;;;;;;4.94;75.28;102536.06;5035910;28;20107;-77
2022/01/24 02:39:22;;;;;;;;;;;;;;;5.02;74.81;102530.91;5035768;28;20076;-77
2022/01/24 02:48:21;;;;;;;3.55;1.02;;;;;;;4.98;75.29;102523.97;5034835;28;20099;-77
2022/01/24 02:49:23;;;;;;;2.20;0.60;;;;;;;5.07;75.09;102516.22;5034924;28;20111;-77
2022/01/24 02:52:27;;;;;;;;;;;;;;;4.95;74.49;102508.44;5035629;28;20044;-77
2022/01/24 02:55:31;;;;;;;2.47;0.77;;;;;;;4.96;75.27;102516.19;5034264;28;19971;-77
2022/01/24 02:58:35;;;;;;;2.05;0.63;;;;;;;4.89;75.59;102512.72;5023265;28;20511;-78
2022/01/24 03:01:43;;;;;;;1.60;0.60;;;;;;;4.51;76.26;102509.97;5035573;28;20048;-78
2022/01/24 03:04:47;;;;;;;3.15;0.65;;;;;;;4.55;75.46;102500.50;5011756;28;20067;-77
2022/01/24 03:07:51;;;;;;;2.00;0.70;;;;;;;4.73;75.82;102500.56;5035175;28;20453;-78
2022/01/24 03:10:54;;;;;;;1.80;0.70;;;;;;;4.83;76.25;102491.97;5035794;28;20075;-78
2022/01/24 03:13:58;;;;;;;2.17;0.80;;;;;;;4.51;76.78;102493.56;5034818;28;20064;-78
2022/01/24 03:17:04;;;;;;;4.63;1.25;;;;;;;4.73;76.78;102492.81;5022812;28;20047;-78
2022/01/24 03:20:07;;;;;;;1.83;0.70;;;;;;;4.83;76.16;102481.59;5034458;28;20144;-78
2022/01/24 03:23:13;;;;;;;2.22;0.70;;;;;;;4.88;76.55;102484.19;5035083;28;20526;-78
2022/01/24 03:26:17;;;;;;;3.30;0.65;;;;;;;4.97;75.99;102471.25;5035451;28;20136;-78
2022/01/24 03:29:20;;;;;;;;;;;;;;;4.87;75.72;102472.97;5034961;28;20048;-78
2022/01/24 03:32:24;;;;;;;4.70;0.93;;;;;;;4.66;76.30;102462.56;5035199;28;19947;-78
2022/01/24 03:35:27;;;;;;;4.60;1.67;;;;;;;4.76;75.76;102469.50;5033919;28;20084;-78
2022/01/24 03:38:31;;;;;;;2.20;0.90;;;;;;;4.83;75.74;102470.38;5034282;28;20465;-78
2022/01/24 03:41:34;;;;;;;2.30;0.85;;;;;;;4.84;75.60;102462.59;5035166;28;20569;-78
2022/01/24 03:44:38;;;;;;;;;;;;;;;4.85;75.78;102463.44;5023350;28;20039;-78
2022/01/24 03:47:56;;;;;;;;;;;;;;;4.68;76.20;102458.22;5023059;28;19967;-78
2022/01/24 03:50:59;;;;;;;1.80;0.80;;;;;;;4.86;74.84;102465.19;5034817;28;19967;-78
2022/01/24 03:54:02;;;;;;;;;;;;;;;4.86;73.92;102450.50;5035200;28;20114;-78
2022/01/24 03:57:06;;;;;;;2.25;0.90;;;;;;;4.87;72.49;102452.22;5033682;28;19924;-78
2022/01/24 04:00:10;;;;;;;2.35;0.70;;;;;;;4.77;72.85;102460.84;5022645;28;20052;-78
2022/01/24 04:03:19;;;;;;;1.65;0.75;;;;;;;4.89;73.29;102450.50;5034299;28;20080;-78
2022/01/24 04:06:22;;;;;;;1.75;0.70;;;;;;;4.93;73.69;102447.91;5021367;28;20049;-78
2022/01/24 04:09:25;;;;;;;4.00;1.00;;;;;;;4.88;73.17;102443.59;5034195;28;20102;-78
2022/01/24 04:12:29;;;;;;;;;;;;;;;4.86;73.44;102442.72;5022010;28;20400;-78
2022/01/24 04:15:45;;;;;;;3.30;1.02;;;;;;;4.96;73.36;102442.75;5032653;28;20532;-78
2022/01/24 04:19:28;;;;;;;2.08;0.90;;;;;;;4.99;73.63;102447.94;5033434;28;20404;-77
2022/01/24 04:22:17;;;;;;;1.77;0.80;;;;;;;4.94;73.38;102453.09;5034076;28;20052;-77
2022/01/24 04:25:24;;;;;;;2.22;0.93;;;;;;;4.99;73.04;102453.13;5034231;28;20043;-77
2022/01/24 04:28:27;;;;;;;2.10;0.77;;;;;;;4.98;73.73;102453.97;5033497;28;20574;-77
2022/01/24 04:31:30;;;;;;;;;;;;;;;4.90;73.87;102452.22;5021448;28;20067;-77
2022/01/24 04:34:37;;;;;;;3.05;0.93;;;;;;;4.73;73.90;102459.09;5033834;28;19928;-77
2022/01/24 04:37:44;;;;;;;2.60;0.70;;;;;;;4.70;73.96;102460.84;5002075;28;20480;-77
2022/01/24 04:40:48;;;;;;;2.40;1.05;;;;;;;4.79;74.09;102456.53;5013178;28;20124;-78
2022/01/24 04:47:24;;;;;;;1.92;0.88;;;;;;;4.92;74.23;102453.97;5013048;28;20596;-77
2022/01/24 04:50:44;;;;;;;2.35;1.02;;;;;;;4.99;74.18;102450.53;5013883;28;20052;-76
2022/01/24 04:54:13;;;;;;;3.08;1.10;;;;;;;4.92;74.34;102448.78;5013583;28;20045;-76
2022/01/24 04:57:29;;;;;;;3.65;2.00;;;;;;;4.63;73.76;102457.34;5001124;28;20123;-79
2022/01/24 05:00:42;;;;;;;4.30;1.45;;;;;;;4.78;73.39;102462.56;4999307;28;20060;-77
2022/01/24 05:03:45;;;;;;;3.33;1.00;;;;;;;4.87;73.17;102452.22;5029750;28;20692;-77
2022/01/24 05:06:48;;;;;;;4.82;1.85;;;;;;;4.81;72.99;102462.56;5028866;28;20056;-76
2022/01/24 05:10:03;;;;;;;11.68;5.20;;;;;;;4.62;72.79;102458.19;5026780;28;20041;-77
2022/01/24 05:23:28;;;;;;;2.47;1.20;;;;;;;4.88;73.42;102466.94;5028471;28;20049;-77
2022/01/24 05:26:31;;;;;;;2.13;0.90;;;;;;;4.94;73.23;102463.47;5004866;28;20098;-78
2022/01/24 05:29:43;;;;;;;2.50;1.20;;;;;;;4.94;73.27;102460.88;5027250;28;20455;-77
2022/01/24 05:32:49;;;;;;;2.70;0.80;;;;;;;4.96;73.64;102460.88;5027402;28;20405;-77
2022/01/24 05:35:52;;;;;;;3.10;1.00;;;;;;;4.97;73.36;102463.47;5027203;28;20129;-76
2022/01/24 05:38:57;;;;;;;;;;;;;;;5.02;73.45;102455.72;5028723;28;20132;-77
2022/01/24 05:42:00;;;;;;;4.05;1.90;;;;;;;5.03;73.17;102457.44;5029365;28;20065;-76
2022/01/24 05:45:06;;;;;;;5.75;2.80;;;;;;;5.06;73.11;102460.03;5027385;28;20084;-77
2022/01/24 05:48:09;;;;;;;9.20;5.72;;;;;;;4.98;73.26;102459.16;5027683;28;20045;-77
2022/01/24 05:51:13;;;;;;;;;;;;;;;4.93;73.01;102455.69;5027694;28;20072;-77
2022/01/24 05:54:17;;;;;;;3.65;1.92;;;;;;;4.96;73.03;102460.88;5026449;28;19919;-77
2022/01/24 05:57:20;;;;;;;4.45;1.30;;;;;;;4.95;73.12;102459.19;5029840;28;20057;-76
2022/01/24 06:00:24;;;;;;;3.90;1.70;;;;;;;5.04;73.05;102457.47;5031921;28;20372;-77
2022/01/24 06:03:27;;;;;;;8.93;2.33;;;;;;;5.03;73.42;102460.91;5031012;28;20098;-77
2022/01/24 06:06:31;;;;;;;;;;;;;;;4.94;72.50;102462.59;5032890;28;20060;-77
2022/01/24 06:09:34;;;;;;;11.68;7.22;;;;;;;4.88;72.88;102463.44;4997766;28;19920;-77
2022/01/24 06:12:38;;;;;;;15.48;8.82;;;;;;;4.94;73.20;102466.06;5020541;28;20048;-76
2022/01/24 06:15:42;;;;;;;10.07;5.13;;;;;;;4.98;72.95;102459.16;5023953;28;20052;-77
2022/01/24 06:18:46;;;;;;;7.78;3.90;;;;;;;4.84;73.18;102462.59;5030337;28;20044;-77
2022/01/24 06:21:49;;;;;;;9.02;4.32;;;;;;;4.83;72.82;102471.22;5006795;28;20047;-77
2022/01/24 06:24:52;;;;;;;;;;;;;;;4.86;73.23;102473.81;5030138;28;20792;-77
2022/01/24 06:27:59;;;;;;;12.00;4.38;;;;;;;4.94;72.83;102479.03;5009056;28;19955;-76
2022/01/24 06:31:06;;;;;;;3.50;1.35;;;;;;;4.93;73.06;102481.63;5028912;28;20064;-77
2022/01/24 06:34:10;;;;;;;4.00;1.38;;;;;;;4.93;72.64;102486.81;5029680;28;20585;-77
2022/01/24 06:37:17;;;;;;;2.08;0.80;;;;;;;4.93;72.45;102482.47;5028839;28;20040;-77
2022/01/24 06:40:21;;;;;;;5.25;2.08;;;;;;;4.78;73.49;102493.66;5029765;28;20052;-77
2022/01/24 06:43:25;;;;;;;10.95;6.97;;;;;;;4.84;73.07;102491.09;5030243;28;20504;-75
2022/01/24 06:46:29;;;;;;;6.82;2.90;;;;;;;4.85;73.75;102500.63;4999258;28;20045;-76
2022/01/24 06:49:35;;;;;;;7.35;3.95;;;;;;;4.72;73.78;102505.72;5021381;28;20464;-76
2022/01/24 06:52:39;;;;;;;7.10;3.72;;;;;;;4.69;73.60;102504.03;5009724;28;20052;-76
2022/01/24 06:55:42;;;;;;;;;;;;;;;4.68;73.05;102504.00;5008277;28;20112;-77
2022/01/24 06:58:46;;;;;;;2.65;1.50;;;;;;;4.79;73.17;102498.00;5013073;28;19924;-77
2022/01/24 07:01:49;;;;;;;3.70;1.90;;;;;;;4.88;73.73;102502.34;5028400;28;20084;-78
2022/01/24 07:04:53;;;;;;;4.28;2.38;;;;;;;4.84;73.42;102498.88;5028120;28;20049;-77
2022/01/24 07:07:59;;;;;;;7.25;5.60;;;;;;;4.82;72.98;102500.59;5029206;28;20076;-77
2022/01/24 07:11:03;;;;;;;4.03;2.80;;;;;;;4.79;73.21;102494.56;5029306;28;20052;-77
2022/01/24 07:14:11;;;;;;;4.35;2.65;;;;;;;4.49;73.45;102501.31;5027568;28;20090;-76
2022/01/24 07:17:30;;;;;;;5.63;3.58;;;;;;;4.72;73.60;102503.16;5028754;28;20061;-78
2022/01/24 07:20:35;;;;;;;2.90;1.60;;;;;;;4.82;73.41;102505.78;5019320;28;20102;-77
2022/01/24 07:23:40;;;;;;;3.30;1.50;;;;;;;4.85;73.31;102504.91;5025466;28;20053;-76
2022/01/24 07:26:44;;;;;;;30.52;18.88;;;;;;;4.88;73.29;102505.81;5029589;28;20037;-78
2022/01/24 07:29:47;;;;;;;;;;;;;;;4.90;72.74;102509.25;5018123;28;20115;-78
2022/01/24 07:32:51;;;;;;;16.00;12.00;;;;;;;4.82;72.88;102500.59;5029486;28;19919;-78
2022/01/24 07:35:55;;;;;;;8.80;4.50;;;;;;;4.78;73.40;102509.22;5028731;28;20530;-78
2022/01/24 07:38:58;;;;;;;10.73;7.43;;;;;;;4.88;73.20;102513.59;5018230;28;20107;-77
2022/01/24 07:42:14;;;;;;;4.55;3.67;;;;;;;4.92;73.06;102514.47;5029545;28;20103;-78
2022/01/24 07:45:19;;;;;;;5.20;2.63;;;;;;;4.92;73.73;102513.59;5029052;28;20040;-77
2022/01/24 07:48:23;;;;;;;2.50;1.70;;;;;;;4.98;73.92;102511.88;5026453;28;20056;-78
2022/01/24 07:51:26;;;;;;;;;;;;;;;4.90;74.01;102508.41;5028566;28;20440;-77
2022/01/24 07:54:30;;;;;;;5.10;1.80;;;;;;;4.97;73.74;102509.28;5027935;28;20012;-78
2022/01/24 07:57:41;;;;;;;6.45;3.75;;;;;;;4.63;73.79;102509.19;5029089;28;20436;-78
2022/01/24 08:00:44;;;;;;;;;;;;;;;4.54;73.91;102517.78;5016907;28;20415;-78
2022/01/24 08:03:47;;;;;;;8.73;5.32;;;;;;;4.63;73.62;102516.94;5028166;28;19919;-79
2022/01/24 08:06:50;;;;;;;;;;;;;;;4.75;73.08;102514.38;5016673;28;20036;-78
2022/01/24 08:09:54;;;;;;;5.68;3.15;;;;;;;4.74;73.62;102511.81;5028350;28;20059;-76
2022/01/24 08:12:57;;;;;;;7.78;3.92;;;;;;;4.63;73.56;102512.63;5029013;28;20055;-77
2022/01/24 08:16:01;;;;;;;3.83;2.50;;;;;;;4.84;73.49;102508.38;5029226;28;20115;-78
2022/01/24 08:19:04;;;;;;;;;;;;;;;4.80;73.51;102497.13;5028793;28;20073;-78
2022/01/24 08:22:08;;;;;;;5.10;3.00;;;;;;;4.64;73.40;102498.81;5028467;28;19974;-78
2022/01/24 08:25:12;;;;;;;8.10;4.18;;;;;;;4.80;73.57;102506.66;5029777;28;20054;-78
2022/01/24 08:28:15;;;;;;;7.40;5.80;;;;;;;4.86;73.31;102506.66;5028605;28;20048;-78
2022/01/24 08:31:19;;;;;;;;;;;;;;;4.82;72.90;102505.78;5028920;28;20048;-77
2022/01/24 08:34:23;;;;;;;17.58;11.40;;;;;;;4.71;73.11;102507.47;5029135;28;19948;-78
2022/01/24 08:37:26;;;;;;;3.25;1.88;;;;;;;4.64;72.95;102513.50;5029241;28;20110;-78
2022/01/24 08:40:32;;;;;;;4.13;2.28;;;;;;;4.63;72.77;102509.19;5029783;28;20500;-78
2022/01/24 08:43:52;;;;;;;6.20;3.17;;;;;;;4.79;72.73;102503.19;5028301;28;20450;-78
2022/01/24 08:46:55;;;;;;;3.75;1.63;;;;;;;4.98;72.66;102516.19;5027843;28;20052;-78
2022/01/24 08:49:58;;;;;;;;;;;;;;;5.08;72.37;102513.63;5029316;28;20385;-78
2022/01/24 08:53:03;;;;;;;8.52;3.28;;;;;;;5.14;72.02;102515.38;5040543;28;19978;-78
2022/01/24 08:56:07;;;;;;;3.33;1.20;;;;;;;4.67;72.72;102516.09;5026561;28;20404;-78
2022/01/24 08:59:11;;;;;;;4.90;1.58;;;;;;;4.70;72.66;102525.63;5027149;28;20095;-78
2022/01/24 09:02:14;;;;;;;2.95;1.15;;;;;;;4.83;72.46;102523.06;5027697;28;20055;-78
2022/01/24 09:05:19;;;;;;;31.73;13.88;;;;;;;4.94;72.18;102535.19;5027974;28;20103;-78
2022/01/24 09:08:23;;;;;;;14.00;8.70;;;;;;;4.85;72.00;102541.19;5027417;28;20493;-78
2022/01/24 09:11:34;;;;;;;5.35;4.15;;;;;;;4.76;73.06;102536.88;5015555;28;20586;-78
2022/01/24 09:14:43;;;;;;;3.85;1.90;;;;;;;4.87;73.17;102540.34;5025566;28;20095;-75
2022/01/24 09:17:47;;;;;;;4.13;2.17;;;;;;;4.81;73.11;102540.31;5003900;28;20051;-74
2022/01/24 09:20:50;;;;;;;;;;;;;;;4.98;72.73;102532.63;5015708;28;20056;-75
2022/01/24 09:23:54;;;;;;;5.82;3.90;;;;;;;4.93;71.99;102538.66;5027974;28;19936;-77
2022/01/24 09:26:57;;;;;;;3.83;2.15;;;;;;;5.07;72.21;102537.84;5015961;28;20060;-76
2022/01/24 09:30:01;;;;;;;;;;;;;;;5.13;71.87;102536.97;4997489;28;20112;-76
2022/01/24 09:33:04;;;;;;;3.38;1.50;;;;;;;4.89;72.17;102540.38;5011573;28;19924;-76
2022/01/24 09:36:07;;;;;;;;;;;;;;;5.07;72.06;102529.19;4999476;28;20124;-77
2022/01/24 09:39:12;;;;;;;2.80;1.70;;;;;;;4.99;72.09;102525.72;5010532;28;19924;-77
2022/01/24 09:42:17;;;;;;;3.53;1.00;;;;;;;5.18;72.03;102539.59;5018626;28;20049;-76
2022/01/24 09:45:21;;;;;;;2.38;1.27;;;;;;;5.11;72.13;102534.41;5031753;28;20103;-77
2022/01/24 09:48:26;;;;;;;2.83;1.40;;;;;;;5.14;71.88;102541.31;5019585;28;20128;-75
2022/01/24 09:51:31;;;;;;;2.80;1.55;;;;;;;4.85;71.57;102541.19;5019968;28;20044;-76
2022/01/24 09:54:35;;;;;;;3.38;2.53;;;;;;;4.93;72.70;102534.31;5032660;28;20080;-77
2022/01/24 09:57:41;;;;;;;6.90;3.85;;;;;;;4.95;72.10;102530.03;5019682;28;20056;-76
2022/01/24 10:00:46;;;;;;;3.92;3.10;;;;;;;5.07;71.53;102527.47;5031705;28;20050;-77
2022/01/24 10:04:15;;;;;;;5.32;1.38;;;;;;;5.24;71.79;102524.91;5020618;28;20048;-77
2022/01/24 10:07:19;;;;;;;5.25;1.77;;;;;;;5.26;71.14;102523.16;5032022;28;20040;-76
2022/01/24 10:10:43;;;;;;;7.00;1.73;;;;;;;4.85;71.61;102531.72;5031519;28;20048;-76
2022/01/24 10:17:15;;;;;;;4.00;1.58;;;;;;;4.68;71.94;102541.13;5011530;28;20056;-76
2022/01/24 10:20:25;;;;;;;4.40;1.50;;;;;;;4.88;71.45;102531.75;4998088;28;20704;-77
2022/01/24 10:23:29;;;;;;;4.55;2.78;;;;;;;4.82;71.58;102533.44;5010888;28;20052;-76
2022/01/24 10:26:32;;;;;;;;;;;;;;;5.02;72.08;102525.72;5028926;28;20044;-76
2022/01/24 10:29:46;;;;;;;3.50;1.70;;;;;;;5.11;71.92;102533.53;5030257;28;19919;-79
2022/01/24 10:32:51;;;;;;;6.00;2.40;;;;;;;5.09;71.13;102535.25;5030708;28;20048;-77
2022/01/24 10:35:55;;;;;;;3.88;1.85;;;;;;;5.03;71.82;102532.63;5030305;28;20167;-76
2022/01/24 10:39:43;;;;;;;5.00;2.80;;;;;;;4.95;72.16;102521.38;5030589;28;20107;-76
2022/01/24 10:42:54;;;;;;;3.78;1.77;;;;;;;5.23;71.81;102525.78;5026949;28;20060;-76
2022/01/24 10:45:58;;;;;;;4.53;2.17;;;;;;;5.15;70.97;102522.28;5049062;28;20122;-76
2022/01/24 10:49:07;;;;;;;;;;;;;;;5.29;71.01;102517.13;5051125;28;20523;-75
2022/01/24 10:52:20;;;;;;;4.28;1.45;;;;;;;5.28;71.33;102518.00;5052363;28;19919;-76
2022/01/24 10:55:28;;;;;;;9.27;2.92;;;;;;;4.90;71.66;102514.44;5030274;28;20091;-76
2022/01/24 10:58:36;;;;;;;4.05;2.33;;;;;;;4.92;71.80;102508.41;5031264;28;20056;-76
2022/01/24 11:01:42;;;;;;;7.40;2.95;;;;;;;4.99;71.05;102512.75;5007804;28;20080;-77
2022/01/24 11:04:46;;;;;;;6.63;2.70;;;;;;;5.04;71.39;102505.84;5031472;28;20107;-77
2022/01/24 11:07:53;;;;;;;;;;;;;;;5.18;71.91;102504.16;5032157;28;20060;-76
2022/01/24 11:10:57;;;;;;;6.32;3.00;;;;;;;5.06;70.58;102511.91;5032041;28;20578;-77
2022/01/24 11:14:01;;;;;;;4.32;1.60;;;;;;;5.17;71.44;102511.91;5012197;28;20045;-77
2022/01/24 11:17:08;;;;;;;5.55;1.70;;;;;;;5.13;70.52;102498.94;4999473;28;20084;-77
2022/01/24 11:20:15;;;;;;;6.55;1.17;;;;;;;5.26;70.80;102502.41;5011440;28;20068;-78
2022/01/24 11:23:21;;;;;;;5.28;1.55;;;;;;;5.40;70.65;102501.59;5024395;28;20126;-76
2022/01/24 11:26:24;;;;;;;4.85;3.35;;;;;;;5.19;70.03;102500.69;5030846;28;20150;-77
2022/01/24 11:29:29;;;;;;;4.20;1.88;;;;;;;5.18;70.50;102493.78;5030445;28;20040;-76
2022/01/24 11:32:42;;;;;;;5.53;1.75;;;;;;;5.17;70.30;102488.56;5030448;28;20444;-76
2022/01/24 11:35:52;;;;;;;4.57;1.60;;;;;;;5.35;70.79;102486.88;5019317;28;20167;-76
2022/01/24 11:38:58;;;;;;;2.97;1.42;;;;;;;5.34;70.38;102482.56;5030287;28;20322;-76
2022/01/24 11:42:04;;;;;;;5.35;1.67;;;;;;;5.52;70.56;102483.41;5016732;28;20140;-75
2022/01/24 11:45:13;;;;;;;6.10;1.25;;;;;;;5.41;70.59;102479.97;5031447;28;20067;-75
2022/01/24 11:48:19;;;;;;;2.40;1.40;;;;;;;5.50;70.15;102479.97;5019417;28;20787;-76
2022/01/24 11:51:30;;;;;;;2.53;1.15;;;;;;;5.50;70.51;102482.56;5029522;28;20052;-76
2022/01/24 11:57:51;;;;;;;3.20;1.30;;;;;;;5.52;69.94;102479.09;5018205;28;20500;-76
2022/01/24 12:01:02;;;;;;;7.00;1.38;;;;;;;5.63;69.97;102468.72;4999197;28;20052;-76
2022/01/24 12:04:06;;;;;;;4.65;1.70;;;;;;;5.65;69.29;102471.28;5009296;28;20507;-76
2022/01/24 12:07:20;;;;;;;5.32;1.60;;;;;;;5.72;69.15;102473.03;5011237;28;20044;-76
2022/01/24 12:10:24;;;;;;;3.15;1.60;;;;;;;5.47;69.40;102474.78;5011654;28;20130;-76
2022/01/24 12:13:35;;;;;;;5.15;1.70;;;;;;;5.29;69.85;102471.28;5009945;28;20601;-76
2022/01/24 12:16:41;;;;;;;3.50;1.40;;;;;;;5.48;69.85;102476.50;5010948;28;20599;-76
2022/01/24 12:19:45;;;;;;;3.72;1.77;;;;;;;5.69;68.81;102460.06;5012729;28;20262;-76
2022/01/24 12:22:49;;;;;;;6.32;2.10;;;;;;;5.46;68.50;102447.97;5016079;28;20043;-76
2022/01/24 12:25:54;;;;;;;3.60;1.45;;;;;;;5.37;69.93;102445.38;5029271;28;20056;-76
2022/01/24 12:29:03;;;;;;;7.40;2.53;;;;;;;5.40;69.01;102441.94;5017888;28;20095;-76
2022/01/24 12:32:20;;;;;;;7.68;4.40;;;;;;;5.44;68.86;102444.50;5029244;28;20688;-76
2022/01/24 12:35:29;;;;;;;5.85;2.33;;;;;;;5.57;68.57;102446.22;5029424;28;20051;-76
2022/01/24 12:38:47;;;;;;;8.40;1.40;;;;;;;5.36;69.01;102441.06;5028633;28;20055;-76
2022/01/24 12:41:59;;;;;;;4.15;1.45;;;;;;;5.68;69.13;102438.44;5029841;28;20060;-76
2022/01/24 12:48:36;;;;;;;3.78;1.80;;;;;;;5.60;68.64;102430.66;5028143;28;20753;-77
2022/01/24 12:51:39;;;;;;;;;;;;;;;5.69;69.00;102441.91;5008250;28;20472;-77
2022/01/24 12:54:49;;;;;;;4.20;1.52;;;;;;;5.57;68.87;102430.66;5007146;28;19979;-77
2022/01/24 12:57:52;;;;;;;4.07;2.00;;;;;;;5.25;68.93;102435.84;5008013;28;20095;-77
2022/01/24 13:00:55;;;;;;;6.80;1.50;;;;;;;5.36;68.68;102430.69;5010398;28;20048;-77
2022/01/24 13:04:16;;;;;;;8.90;1.92;;;;;;;5.59;68.84;102428.06;5038688;28;20060;-76
2022/01/24 13:07:20;;;;;;;4.13;1.40;;;;;;;5.53;68.65;102428.94;5029117;28;20571;-77
2022/01/24 13:10:26;;;;;;;;;;;;;;;5.65;69.57;102425.47;5027439;28;20045;-77
2022/01/24 13:13:31;;;;;;;4.70;1.75;;;;;;;5.66;68.08;102421.13;5039839;28;19967;-81
2022/01/24 13:20:45;;;;;;;3.50;1.65;;;;;;;5.61;68.29;102421.13;5028888;28;20687;-76
2022/01/24 13:23:53;;;;;;;5.90;1.98;;;;;;;5.91;68.88;102419.38;5029569;28;20110;-75
2022/01/24 13:27:04;;;;;;;6.60;1.45;;;;;;;6.03;68.16;102414.13;5028434;28;20091;-75
2022/01/24 13:30:13;;;;;;;3.40;1.13;;;;;;;6.12;67.91;102414.09;5029807;28;20061;-76
2022/01/24 13:33:24;;;;;;;4.82;1.95;;;;;;;5.68;68.31;102409.91;5029809;28;20076;-76
2022/01/24 13:36:28;;;;;;;3.90;1.90;;;;;;;5.80;68.54;102409.84;5029291;28;20048;-76
2022/01/24 13:39:31;;;;;;;5.07;1.70;;;;;;;5.91;68.32;102407.25;5028088;28;20044;-76
2022/01/24 13:42:36;;;;;;;6.38;2.78;;;;;;;5.73;68.72;102405.53;5007098;28;20064;-76
2022/01/24 13:45:43;;;;;;;5.78;2.53;;;;;;;5.92;68.86;102406.34;5026004;28;20507;-76
2022/01/24 13:48:58;;;;;;;5.82;2.47;;;;;;;5.61;68.32;102415.94;5015132;28;20041;-76
2022/01/24 13:52:07;;;;;;;4.78;2.10;;;;;;;5.28;69.07;102409.06;5027719;28;20068;-76
2022/01/24 13:55:18;;;;;;;4.35;1.92;;;;;;;5.26;69.17;102403.84;5027397;28;20088;-75
2022/01/24 13:58:26;;;;;;;11.13;2.65;;;;;;;5.17;69.57;102418.56;5028563;28;20131;-76
2022/01/24 14:01:30;;;;;;;4.65;2.38;;;;;;;5.27;68.81;102409.94;5027130;28;20055;-76
2022/01/24 14:04:49;;;;;;;3.58;1.83;;;;;;;5.44;68.80;102404.72;5027956;28;20060;-76
2022/01/24 14:07:52;;;;;;;10.93;5.60;;;;;;;5.45;68.54;102414.22;5027884;28;20095;-77
2022/01/24 14:11:13;;;;;;;7.13;3.25;;;;;;;5.41;68.49;102407.31;5038083;28;20494;-77
2022/01/24 14:14:29;;;;;;;6.30;2.55;;;;;;;5.41;68.84;102412.50;5028959;28;20416;-79
2022/01/24 14:20:36;;;;;;;5.80;2.15;;;;;;;5.69;69.05;102418.53;5032521;28;20123;-75
2022/01/24 14:23:42;;;;;;;9.50;2.78;;;;;;;5.63;68.37;102414.22;5032293;28;20095;-76
2022/01/24 14:26:47;;;;;;;5.40;2.78;;;;;;;5.48;68.18;102419.41;5031595;28;20175;-76
2022/01/24 14:30:11;;;;;;;7.40;3.20;;;;;;;5.45;68.50;102419.41;5030814;28;20574;-76
2022/01/24 14:33:20;;;;;;;11.05;3.50;;;;;;;5.28;69.17;102411.66;5032872;28;20040;-75
2022/01/24 14:36:23;;;;;;;5.88;2.53;;;;;;;5.42;69.02;102407.31;5031065;28;20047;-76
2022/01/24 14:39:29;;;;;;;6.78;3.55;;;;;;;5.39;68.86;102398.66;5031876;28;20056;-75
2022/01/24 14:42:45;;;;;;;7.15;2.97;;;;;;;5.32;68.83;102398.66;5027753;28;20508;-74
2022/01/24 14:45:49;;;;;;;8.13;2.25;;;;;;;5.45;69.45;102404.72;5032417;28;20064;-76
2022/01/24 14:48:57;;;;;;;8.02;2.08;;;;;;;5.29;68.41;102400.41;5031222;28;20051;-77
2022/01/24 14:52:06;;;;;;;5.25;3.40;;;;;;;5.43;68.28;102403.00;5030897;28;20101;-77
2022/01/24 14:55:09;;;;;;;6.85;3.33;;;;;;;5.67;68.62;102410.75;5031169;28;20072;-77
2022/01/24 14:58:12;;;;;;;8.35;2.50;;;;;;;5.78;68.08;102409.00;5017816;28;20064;-79
2022/01/24 15:01:17;;;;;;;6.22;2.88;;;;;;;5.68;68.81;102407.31;5030339;28;20621;-79
2022/01/24 15:04:21;;;;;;;7.90;3.22;;;;;;;5.55;68.59;102409.06;5031672;28;20048;-79
2022/01/24 15:07:24;;;;;;;;;;;;;;;5.57;68.50;102416.81;5031852;28;20100;-79
2022/01/24 15:10:28;;;;;;;7.03;2.55;;;;;;;5.40;69.32;102415.97;5028947;28;19924;-78
2022/01/24 15:13:41;;;;;;;8.52;2.88;;;;;;;5.40;68.90;102421.16;5029713;28;20091;-80
2022/01/24 15:16:54;;;;;;;;;;;;;;;5.44;68.94;102412.50;5030676;28;21172;-80
2022/01/24 15:26:43;;;;;;;7.32;2.53;;;;;;;5.54;68.74;102422.88;5031402;28;20102;-80
2022/01/24 15:33:10;;;;;;;6.93;2.80;;;;;;;5.47;69.01;102407.31;5030488;28;20064;-81
2022/01/24 15:36:14;;;;;;;;;;;;;;;5.46;69.04;102410.78;5031454;28;20052;-81
2022/01/24 15:39:17;;;;;;;6.32;3.33;;;;;;;5.56;69.23;102404.72;5029387;28;19933;-81
2022/01/24 15:42:45;;;;;;;8.90;2.90;;;;;;;5.47;69.45;102408.19;5030185;28;20747;-80
2022/01/24 15:46:00;;;;;;;10.23;6.38;;;;;;;5.34;70.50;102406.47;5030016;28;20041;-78
2022/01/24 15:49:05;;;;;;;12.52;4.82;;;;;;;5.49;70.34;102400.41;5029609;28;20087;-78
2022/01/24 15:52:11;;;;;;;8.00;4.05;;;;;;;5.50;70.27;102409.91;5029104;28;20052;-78
2022/01/24 15:55:20;;;;;;;6.05;2.50;;;;;;;5.60;69.44;102407.28;5008337;28;20080;-76
2022/01/24 15:58:27;;;;;;;4.97;2.33;;;;;;;5.62;69.43;102406.44;5019641;28;20137;-75
2022/01/24 16:01:34;;;;;;;6.35;2.97;;;;;;;5.76;71.19;102400.34;5010152;28;20060;-75
2022/01/24 16:04:40;;;;;;;8.27;3.45;;;;;;;5.66;69.56;102402.97;5010998;28;20073;-76
2022/01/24 16:07:49;;;;;;;7.65;3.58;;;;;;;5.73;69.99;102402.09;5021510;28;20064;-77
2022/01/24 16:10:54;;;;;;;34.25;10.00;;;;;;;5.68;70.13;102412.50;5017077;28;20522;-77
2022/01/24 16:13:58;;;;;;;114.50;31.70;;;;;;;5.70;71.82;102412.47;5026327;28;20096;-77
2022/01/24 16:17:03;;;;;;;25.55;8.85;;;;;;;5.64;71.57;102415.94;5028277;28;20094;-77
2022/01/24 16:20:21;;;;;;;22.25;7.20;;;;;;;5.70;72.53;102410.72;5030015;28;20060;-76